Time;durP1;ratioP1;P1;durP2;ratioP2;P2;SDS_P1;SDS_P2;PMS_P1;PMS_P2;Temp;Humidity;BMP_temperature;BMP_pressure;BME280_temperature;BME280_humidity;BME280_pressure;Samples;Min_cycle;Max_cycle;Signal;HPM_P1;HPM_P2
2023/09/02 00:01:21;;;;;;;;;;;;;;;24.55;44.84;101812.53;5005764;28;20001;-70
2023/09/02 00:03:47;;;;;;;;;;;;;;;24.53;45.01;101820.69;5062394;28;21898;-71
2023/09/02 00:06:12;;;;;;;;;;;;;;;24.54;45.06;101819.69;4997534;28;20042;-67
2023/09/02 00:08:37;;;;;;;;;;;;;;;24.54;44.90;101817.03;5055118;28;19945;-66
2023/09/02 00:11:03;;;;;;;;;;;;;;;24.53;45.06;101806.56;5000797;28;20000;-70
2023/09/02 00:13:28;;;;;;;;;;;;;;;24.52;44.99;101805.75;5057453;28;19968;-70
2023/09/02 00:15:54;;;;;;;;;;;;;;;24.54;44.98;101805.56;5000796;28;20073;-65
2023/09/02 00:18:19;;;;;;;;;;;;;;;24.52;44.98;101804.91;5056969;28;20002;-65
2023/09/02 00:20:45;;;;;;;;;;;;;;;24.53;45.07;101806.56;5001937;28;20452;-71
2023/09/02 00:23:10;;;;;;;;;;;;;;;24.52;44.83;101800.41;5043700;28;20027;-71
2023/09/02 00:25:36;;;;;;;;;;;;;;;24.53;44.93;101799.41;5062140;28;19940;-71
2023/09/02 00:28:01;;;;;;;;;;;;;;;24.50;45.15;101801.63;5003160;28;19953;-65
2023/09/02 00:30:27;;;;;;;;;;;;;;;24.50;44.99;101805.09;5058980;28;19940;-67
2023/09/02 00:32:53;;;;;;;;;;;;;;;24.52;45.08;101811.06;5003921;28;20169;-70
2023/09/02 00:35:18;;;;;;;;;;;;;;;24.51;45.10;101809.41;5057439;28;19981;-70
2023/09/02 00:37:43;;;;;;;;;;;;;;;24.49;45.02;101810.63;5008645;28;20062;-70
2023/09/02 00:40:12;;;;;;;;;;;;;;;24.51;44.93;101811.25;5060206;28;21097;-70
2023/09/02 00:42:38;;;;;;;;;;;;;;;24.51;45.04;101814.75;5002744;28;20033;-66
2023/09/02 00:45:04;;;;;;;;;;;;;;;24.50;44.96;101815.75;5056111;28;19971;-65
2023/09/02 00:47:29;;;;;;;;;;;;;;;24.50;44.88;101813.09;5002030;28;19954;-71
2023/09/02 00:49:55;;;;;;;;;;;;;;;24.49;44.97;101806.13;5057662;28;20233;-73
2023/09/02 00:52:20;;;;;;;;;;;;;;;24.51;44.93;101817.41;5008672;28;20035;-71
2023/09/02 00:54:46;;;;;;;;;;;;;;;24.50;44.98;101815.75;5060007;28;19952;-72
2023/09/02 00:57:11;;;;;;;;;;;;;;;24.50;45.15;101820.25;5002800;28;19946;-70
2023/09/02 00:59:36;;;;;;;;;;;;;;;24.48;45.01;101823.09;5055672;28;19961;-72
2023/09/02 01:02:03;;;;;;;;;;;;;;;24.49;44.92;101826.59;4999125;28;19953;-71
2023/09/02 01:04:29;;;;;;;;;;;;;;;24.50;45.06;101825.59;5081926;27;19980;-71
2023/09/02 01:06:58;;;;;;;;;;;;;;;24.47;44.96;101829.44;4995677;28;21245;-66
2023/09/02 01:09:23;;;;;;;;;;;;;;;24.48;45.04;101825.78;5056538;28;19946;-66
2023/09/02 01:11:49;;;;;;;;;;;;;;;24.47;45.04;101823.31;5000497;28;21764;-71
2023/09/02 01:14:14;;;;;;;;;;;;;;;24.46;44.96;101825.13;5060899;28;20399;-72
2023/09/02 01:16:40;;;;;;;;;;;;;;;24.46;44.96;101817.16;5002017;28;20439;-66
2023/09/02 01:19:08;;;;;;;;;;;;;;;24.47;45.01;101824.13;5058484;28;20005;-66
2023/09/02 01:21:52;;;;;;;;;;;;;;;24.45;45.02;101817.34;4994920;28;20656;-66
2023/09/02 01:24:21;;;;;;;;;;;;;;;24.47;45.01;101823.31;5055158;28;20160;-67
2023/09/02 01:27:02;;;;;;;;;;;;;;;24.47;45.21;101824.13;4998348;28;19968;-66
2023/09/02 01:29:29;;;;;;;;;;;;;;;24.46;45.20;101829.63;5039558;28;19949;-66
2023/09/02 01:31:55;;;;;;;;;;;;;;;24.46;45.11;101827.81;5060197;28;19948;-66
2023/09/02 01:34:21;;;;;;;;;;;;;;;24.46;45.10;101837.63;5002622;28;20694;-67
2023/09/02 01:36:50;;;;;;;;;;;;;;;24.47;45.11;101833.94;5058055;28;19947;-66
2023/09/02 01:39:16;;;;;;;;;;;;;;;24.45;45.09;101833.31;5003504;28;19997;-65
2023/09/02 01:41:43;;;;;;;;;;;;;;;24.42;44.99;101837.19;5058428;28;20051;-66
2023/09/02 01:44:10;;;;;;;;;;;;;;;24.45;44.89;101833.31;5001851;28;19956;-65
2023/09/02 01:46:35;;;;;;;;;;;;;;;24.44;44.99;101834.31;5059130;28;20202;-65
2023/09/02 01:49:01;;;;;;;;;;;;;;;24.43;45.00;101846.00;5000752;28;20349;-66
2023/09/02 01:51:28;;;;;;;;;;;;;;;24.44;44.98;101845.81;5061526;28;20426;-66
2023/09/02 01:53:55;;;;;;;;;;;;;;;24.43;45.03;101846.00;5000682;28;20512;-71
2023/09/02 01:56:21;;;;;;;;;;;;;;;24.44;44.79;101842.31;5059013;28;19947;-72
2023/09/02 01:58:49;;;;;;;;;;;;;;;24.41;45.00;101851.47;5001041;28;20302;-72
2023/09/02 02:01:14;;;;;;;;;;;;;;;24.43;44.94;101848.66;5055273;28;19969;-71
2023/09/02 02:03:50;;;;;;;;;;;;;;;24.23;44.94;101819.88;5006278;28;19944;-72
2023/09/02 02:06:17;;;;;;;;;;;;;;;24.41;45.08;101846.97;5057630;28;19938;-72
2023/09/02 02:08:52;;;;;;;;;;;;;;;24.16;44.85;101803.00;5021216;28;19948;-73
2023/09/02 02:11:19;;;;;;;;;;;;;;;24.41;45.09;101843.47;5058845;28;19981;-72
2023/09/02 02:13:45;;;;;;;;;;;;;;;24.41;45.01;101844.31;5005238;28;22118;-71
2023/09/02 02:16:11;;;;;;;;;;;;;;;24.43;44.91;101851.31;5061439;28;19936;-71
2023/09/02 02:18:37;;;;;;;;;;;;;;;24.27;44.89;101823.84;5031568;28;20571;-70
2023/09/02 02:21:04;;;;;;;;;;;;;;;24.39;44.93;101843.66;5028285;28;19948;-71
2023/09/02 02:23:43;;;;;;;;;;;;;;;24.40;45.15;101855.16;5039199;28;19947;-70
2023/09/02 02:26:08;;;;;;;;;;;;;;;24.39;45.05;101848.16;5055176;28;20518;-70
2023/09/02 02:28:38;;;;;;;;;;;;;;;24.22;44.67;101817.41;5017140;28;19983;-67
2023/09/02 02:31:07;;;;;;;;;;;;;;;24.39;45.10;101850.84;5039793;28;19943;-66
2023/09/02 02:33:37;;;;;;;;;;;;;;;24.38;44.86;101847.34;5036670;28;20217;-67
2023/09/02 02:36:03;;;;;;;;;;;;;;;24.20;45.15;101822.09;5037406;28;19953;-66
2023/09/02 02:38:32;;;;;;;;;;;;;;;24.20;45.02;101828.25;5051928;28;19957;-67
2023/09/02 02:41:01;;;;;;;;;;;;;;;24.39;44.79;101856.16;5011179;28;19942;-71
2023/09/02 02:43:32;;;;;;;;;;;;;;;24.20;45.02;101828.25;5051064;28;19989;-71
2023/09/02 02:45:58;;;;;;;;;;;;;;;24.37;44.94;101855.53;5034301;28;19966;-65
2023/09/02 02:48:38;;;;;;;;;;;;;;;24.05;44.90;101803.47;5050520;28;20426;-66
2023/09/02 02:51:09;;;;;;;;;;;;;;;24.38;45.02;101852.66;5061147;28;20311;-71
2023/09/02 02:53:36;;;;;;;;;;;;;;;24.38;45.03;101855.34;5020534;28;19947;-66
2023/09/02 02:56:05;;;;;;;;;;;;;;;24.36;45.07;101854.69;5052267;28;19954;-66
2023/09/02 02:58:33;;;;;;;;;;;;;;;24.37;44.95;101853.69;5031674;28;19966;-65
2023/09/02 03:01:04;;;;;;;;;;;;;;;24.15;44.87;101822.66;5069269;28;19943;-66
2023/09/02 03:03:30;;;;;;;;;;;;;;;24.39;45.05;101856.16;5039789;28;20347;-66
2023/09/02 03:06:03;;;;;;;;;;;;;;;24.35;44.83;101853.03;5027419;28;20735;-66
2023/09/02 03:08:29;;;;;;;;;;;;;;;24.34;45.10;101855.91;5056221;28;20016;-66
2023/09/02 03:10:59;;;;;;;;;;;;;;;24.35;44.96;101861.03;5014382;28;19948;-66
2023/09/02 03:13:33;;;;;;;;;;;;;;;24.33;45.17;101857.72;5046460;28;19950;-66
2023/09/02 03:16:07;;;;;;;;;;;;;;;24.34;44.98;101854.06;5061745;28;19936;-71
2023/09/02 03:18:33;;;;;;;;;;;;;;;24.34;44.92;101855.91;5026200;28;20033;-71
2023/09/02 03:21:02;;;;;;;;;;;;;;;24.35;44.93;101853.03;5073816;27;20351;-69
2023/09/02 03:23:36;;;;;;;;;;;;;;;24.34;45.02;101858.56;5047702;28;19937;-71
2023/09/02 03:26:08;;;;;;;;;;;;;;;24.33;45.02;101860.41;5064645;28;19951;-71
2023/09/02 03:28:34;;;;;;;;;;;;;;;24.32;44.98;101861.41;5061247;28;19935;-71
2023/09/02 03:31:06;;;;;;;;;;;;;;;24.32;45.13;101857.91;5060246;28;19947;-71
2023/09/02 03:33:32;;;;;;;;;;;;;;;24.33;45.05;101862.22;5057788;28;19945;-70
2023/09/02 03:35:59;;;;;;;;;;;;;;;24.34;44.94;101858.56;5058085;28;19939;-72
2023/09/02 03:38:25;;;;;;;;;;;;;;;24.33;45.03;101863.06;5061040;28;20052;-72
2023/09/02 03:40:50;;;;;;;;;;;;;;;24.33;44.81;101865.72;5056498;28;19941;-72
2023/09/02 03:43:16;;;;;;;;;;;;;;;24.34;44.83;101863.88;5056421;28;20015;-71
2023/09/02 03:45:41;;;;;;;;;;;;;;;24.32;45.06;101865.91;5056620;28;19996;-71
2023/09/02 03:48:07;;;;;;;;;;;;;;;24.34;44.99;101874.53;5058367;28;20038;-70
2023/09/02 03:50:32;;;;;;;;;;;;;;;24.29;45.00;101875.09;5056252;28;19951;-69
2023/09/02 03:52:58;;;;;;;;;;;;;;;24.29;45.01;101875.09;5059041;28;19946;-70
2023/09/02 03:55:24;;;;;;;;;;;;;;;24.30;45.02;101875.91;5065573;28;20338;-71
2023/09/02 03:57:51;;;;;;;;;;;;;;;24.32;44.92;101884.53;5064745;28;20059;-71
2023/09/02 04:00:17;;;;;;;;;;;;;;;24.33;45.07;101883.53;5055610;28;19947;-70
2023/09/02 04:02:42;;;;;;;;;;;;;;;24.33;45.04;101880.88;5064182;28;20016;-71
2023/09/02 04:05:09;;;;;;;;;;;;;;;24.31;44.92;101874.91;5058062;28;20473;-71
2023/09/02 04:07:34;;;;;;;;;;;;;;;24.28;45.06;101883.22;5094263;27;19949;-71
2023/09/02 04:09:59;;;;;;;;;;;;;;;24.28;44.97;101878.72;5035847;28;19951;-71
2023/09/02 04:12:25;;;;;;;;;;;;;;;24.30;45.11;101878.56;5044851;28;20425;-71
2023/09/02 04:14:50;;;;;;;;;;;;;;;24.28;45.02;101880.56;5056881;28;20081;-71
2023/09/02 04:17:16;;;;;;;;;;;;;;;24.29;44.99;101876.94;5059052;28;19951;-71
2023/09/02 04:19:43;;;;;;;;;;;;;;;24.27;45.17;101885.06;5062817;28;19997;-72
2023/09/02 04:22:09;;;;;;;;;;;;;;;24.27;44.95;101884.25;5057503;28;19986;-72
2023/09/02 04:24:34;;;;;;;;;;;;;;;24.28;44.96;101885.91;5052515;28;20034;-71
2023/09/02 04:27:01;;;;;;;;;;;;;;;24.28;44.86;101881.41;5056022;28;19960;-71
2023/09/02 04:29:26;;;;;;;;;;;;;;;24.27;45.10;101884.25;5056790;28;20002;-71
2023/09/02 04:31:53;;;;;;;;;;;;;;;24.27;45.04;101884.25;5049520;28;19954;-71
2023/09/02 04:34:22;;;;;;;;;;;;;;;24.28;44.97;101886.72;5056754;28;19945;-69
2023/09/02 04:36:49;;;;;;;;;;;;;;;24.27;45.10;101887.72;5058743;28;19950;-71
2023/09/02 04:39:15;;;;;;;;;;;;;;;24.28;45.06;101888.56;5054834;28;20344;-72
2023/09/02 04:41:41;;;;;;;;;;;;;;;24.26;45.08;101890.56;5055457;28;20332;-71
2023/09/02 04:44:06;;;;;;;;;;;;;;;24.27;44.94;101893.06;5073809;28;19945;-71
2023/09/02 04:46:32;;;;;;;;;;;;;;;24.28;44.97;101902.69;5054765;28;19984;-71
2023/09/02 04:48:57;;;;;;;;;;;;;;;24.28;44.87;101905.34;5058154;28;19983;-71
2023/09/02 04:51:23;;;;;;;;;;;;;;;24.27;44.82;101909.03;5059731;28;20424;-71
2023/09/02 04:53:49;;;;;;;;;;;;;;;24.26;44.94;101904.72;5053214;28;19966;-71
2023/09/02 04:56:14;;;;;;;;;;;;;;;24.25;45.02;101902.25;5060517;28;20003;-71
2023/09/02 04:58:40;;;;;;;;;;;;;;;24.24;45.02;101906.72;5055960;28;20353;-71
2023/09/02 05:01:12;;;;;;;;;;;;;;;24.25;45.01;101913.72;5055526;28;19974;-71
2023/09/02 05:03:41;;;;;;;;;;;;;;;24.24;45.00;101925.38;5085702;28;19951;-72
2023/09/02 05:06:08;;;;;;;;;;;;;;;24.24;45.00;101925.38;5059514;28;19952;-71
2023/09/02 05:08:37;;;;;;;;;;;;;;;24.25;44.94;101928.84;5069802;28;19995;-71
2023/09/02 05:11:03;;;;;;;;;;;;;;;24.26;44.94;101927.84;5053225;28;20477;-71
2023/09/02 05:13:29;;;;;;;;;;;;;;;24.26;44.92;101933.16;5072357;28;19940;-71
2023/09/02 05:15:54;;;;;;;;;;;;;;;24.27;45.06;101938.31;5091032;27;21608;-71
2023/09/02 05:18:20;;;;;;;;;;;;;;;24.24;44.87;101944.00;5088602;27;20715;-70
2023/09/02 05:20:45;;;;;;;;;;;;;;;24.24;44.93;101945.84;5037443;28;19992;-71
2023/09/02 05:23:12;;;;;;;;;;;;;;;24.22;45.05;101939.84;5059084;28;19949;-71
2023/09/02 05:25:37;;;;;;;;;;;;;;;24.23;45.01;101946.81;5056715;28;20397;-71
2023/09/02 05:28:03;;;;;;;;;;;;;;;24.23;44.83;101944.16;5054102;28;19948;-71
2023/09/02 05:30:28;;;;;;;;;;;;;;;24.24;44.95;101937.84;5050063;28;20851;-71
2023/09/02 05:32:54;;;;;;;;;;;;;;;24.23;44.93;101950.28;5061140;28;20344;-71
2023/09/02 05:35:19;;;;;;;;;;;;;;;24.24;45.05;101949.31;5057066;28;19943;-72
2023/09/02 05:37:45;;;;;;;;;;;;;;;24.23;44.89;101950.28;5055671;28;19941;-71
2023/09/02 05:40:10;;;;;;;;;;;;;;;24.23;44.93;101958.28;5055445;28;19989;-71
2023/09/02 05:42:36;;;;;;;;;;;;;;;24.24;44.79;101965.28;5056578;28;19942;-71
2023/09/02 05:45:01;;;;;;;;;;;;;;;24.24;44.99;101959.97;5054150;28;20289;-71
2023/09/02 05:47:26;;;;;;;;;;;;;;;24.21;44.91;101954.97;5052576;28;19972;-71
2023/09/02 05:49:52;;;;;;;;;;;;;;;24.21;45.05;101967.47;5057748;28;19944;-71
2023/09/02 05:52:17;;;;;;;;;;;;;;;24.24;44.90;101964.47;5053520;28;19956;-71
2023/09/02 05:54:43;;;;;;;;;;;;;;;24.24;44.83;101959.97;5063862;28;19949;-73
2023/09/02 05:57:08;;;;;;;;;;;;;;;24.24;45.02;101959.13;5059469;28;20011;-72
2023/09/02 05:59:33;;;;;;;;;;;;;;;24.23;44.95;101954.78;5056707;28;19963;-71
2023/09/02 06:01:59;;;;;;;;;;;;;;;24.25;44.89;101966.13;5052463;28;20407;-71
2023/09/02 06:04:24;;;;;;;;;;;;;;;24.24;44.89;101956.47;5054048;28;19993;-71
2023/09/02 06:06:50;;;;;;;;;;;;;;;24.07;44.96;101931.84;5059824;28;19942;-71
2023/09/02 06:09:16;;;;;;;;;;;;;;;24.23;44.91;101963.59;5057136;28;19959;-71
2023/09/02 06:11:41;;;;;;;;;;;;;;;24.27;44.89;101972.91;5057601;28;19958;-72
2023/09/02 06:14:07;;;;;;;;;;;;;;;24.24;44.87;101967.94;5057712;28;19966;-72
2023/09/02 06:16:32;;;;;;;;;;;;;;;24.26;44.82;101970.44;5059450;28;20033;-72
2023/09/02 06:18:57;;;;;;;;;;;;;;;24.25;44.81;101974.09;5059607;28;20109;-71
2023/09/02 06:21:23;;;;;;;;;;;;;;;24.25;44.83;101974.09;5060349;28;20503;-71
2023/09/02 06:23:49;;;;;;;;;;;;;;;24.25;45.02;101976.75;5055860;28;19999;-71
2023/09/02 06:26:15;;;;;;;;;;;;;;;24.23;44.87;101984.91;5056508;28;20363;-71
2023/09/02 06:28:40;;;;;;;;;;;;;;;24.25;44.94;101990.06;5059429;28;20350;-71
2023/09/02 06:31:09;;;;;;;;;;;;;;;24.28;44.86;101993.19;5052046;28;19952;-71
2023/09/02 06:33:35;;;;;;;;;;;;;;;24.27;44.92;101998.69;5053886;28;19942;-71
2023/09/02 06:36:08;;;;;;;;;;;;;;;24.26;44.72;102007.69;5058950;28;19978;-71
2023/09/02 06:38:33;;;;;;;;;;;;;;;24.27;44.88;102012.84;5054558;28;19969;-71
2023/09/02 06:40:59;;;;;;;;;;;;;;;24.28;44.86;102017.16;5058442;28;19959;-71
2023/09/02 06:43:24;;;;;;;;;;;;;;;24.29;44.80;102012.69;5060360;28;19950;-71
2023/09/02 06:45:49;;;;;;;;;;;;;;;24.31;44.91;102018.66;5059257;28;20009;-71
2023/09/02 06:48:15;;;;;;;;;;;;;;;24.29;44.86;102016.16;5058011;28;20000;-71
2023/09/02 06:50:44;;;;;;;;;;;;;;;24.30;44.83;102022.31;5060017;28;20558;-71
2023/09/02 06:53:09;;;;;;;;;;;;;;;24.31;44.74;102021.31;5062258;28;19941;-72
2023/09/02 06:55:36;;;;;;;;;;;;;;;24.31;45.00;102027.47;5057936;28;19946;-72
2023/09/02 06:58:01;;;;;;;;;;;;;;;24.32;44.84;102026.44;5057824;28;20118;-71
2023/09/02 07:00:27;;;;;;;;;;;;;;;24.34;44.80;102031.59;5054860;28;19945;-71
2023/09/02 07:02:52;;;;;;;;;;;;;;;24.34;44.68;102032.41;5058592;28;20033;-70
2023/09/02 07:05:17;;;;;;;;;;;;;;;24.34;44.95;102032.41;5057207;28;20627;-69
2023/09/02 07:07:43;;;;;;;;;;;;;;;24.36;45.00;102030.41;5059336;28;19947;-70
2023/09/02 07:10:08;;;;;;;;;;;;;;;24.37;45.06;102036.56;5053751;28;20002;-71
2023/09/02 07:12:33;;;;;;;;;;;;;;;24.39;44.94;102043.34;5059544;28;20000;-71
2023/09/02 07:14:59;;;;;;;;;;;;;;;24.40;44.98;102044.16;5058221;28;19968;-71
2023/09/02 07:17:28;;;;;;;;;;;;;;;24.40;45.24;102044.16;5058285;28;20044;-70
2023/09/02 07:19:53;;;;;;;;;;;;;;;24.41;45.08;102041.31;5059362;28;19967;-73
2023/09/02 07:22:20;;;;;;;;;;;;;;;24.42;44.94;102036.84;5077325;28;19950;-71
2023/09/02 07:24:45;;;;;;;;;;;;;;;24.44;45.02;102047.31;5060007;28;19996;-70
2023/09/02 07:27:11;;;;;;;;;;;;;;;24.43;44.95;102051.81;5057364;28;19940;-72
2023/09/02 07:29:36;;;;;;;;;;;;;;;24.44;45.18;102055.31;5064958;28;19946;-73
2023/09/02 07:32:01;;;;;;;;;;;;;;;24.47;45.06;102054.94;5057430;28;19944;-73
2023/09/02 07:34:27;;;;;;;;;;;;;;;24.49;44.99;102052.91;5057432;28;20371;-73
2023/09/02 07:36:52;;;;;;;;;;;;;;;24.49;44.95;102052.91;5058046;28;20780;-72
2023/09/02 07:39:19;;;;;;;;;;;;;;;24.49;44.95;102053.75;5063686;28;19965;-71
2023/09/02 07:41:44;;;;;;;;;;;;;;;24.52;45.00;102064.03;5060419;28;19948;-72
2023/09/02 07:44:09;;;;;;;;;;;;;;;24.54;44.90;102066.50;5063360;28;20036;-69
2023/09/02 07:46:35;;;;;;;;;;;;;;;24.32;45.00;102031.78;5060064;28;20018;-71
2023/09/02 07:49:00;;;;;;;;;;;;;;;24.52;45.02;102055.22;5057727;28;20038;-72
2023/09/02 07:51:26;;;;;;;;;;;;;;;24.53;45.04;102065.69;5059018;28;19990;-70
2023/09/02 07:53:51;;;;;;;;;;;;;;;24.56;44.77;102067.16;5058847;28;19945;-71
2023/09/02 07:56:16;;;;;;;;;;;;;;;24.56;44.91;102067.97;5061544;28;19943;-72
2023/09/02 07:58:43;;;;;;;;;;;;;;;24.56;44.96;102070.66;5060872;28;20679;-71
2023/09/02 08:01:08;;;;;;;;;;;;;;;24.59;44.97;102082.75;5060919;28;20314;-71
2023/09/02 08:03:34;;;;;;;;;;;;;;;24.59;44.83;102093.41;5059720;28;19954;-71
2023/09/02 08:06:04;;;;;;;;;;;;;;;24.60;44.90;102092.44;5059526;28;19989;-70
2023/09/02 08:08:30;;;;;;;;;;;;;;;24.59;44.97;102106.72;5058936;28;20662;-72
2023/09/02 08:11:02;;;;;;;;;;;;;;;24.60;45.08;102103.09;5058335;28;20423;-69
2023/09/02 08:13:27;;;;;;;;;;;;;;;24.62;44.89;102103.72;5061069;28;19953;-72
2023/09/02 08:15:52;;;;;;;;;;;;;;;24.61;44.93;102094.91;5061563;28;19952;-72
2023/09/02 08:18:18;;;;;;;;;;;;;;;24.60;45.06;102100.44;5060656;28;19949;-70
2023/09/02 08:20:43;;;;;;;;;;;;;;;24.63;45.08;102087.56;5063522;28;20012;-70
2023/09/02 08:23:09;;;;;;;;;;;;;;;24.65;44.97;102093.53;5064741;28;19954;-70
2023/09/02 08:25:34;;;;;;;;;;;;;;;24.65;44.90;102101.53;5054539;28;19955;-70
2023/09/02 08:27:59;;;;;;;;;;;;;;;24.66;45.00;102103.19;5056912;28;19955;-70
2023/09/02 08:30:25;;;;;;;;;;;;;;;24.67;44.85;102107.50;5057112;28;20017;-73
2023/09/02 08:32:51;;;;;;;;;;;;;;;24.68;44.89;102111.81;5058201;28;19949;-70
2023/09/02 08:35:17;;;;;;;;;;;;;;;24.68;45.03;102113.66;5057889;28;21543;-71
2023/09/02 08:37:42;;;;;;;;;;;;;;;24.70;44.83;102112.47;5057779;28;19945;-70
2023/09/02 08:40:07;;;;;;;;;;;;;;;24.70;44.87;102111.63;5059772;28;19964;-71
2023/09/02 08:42:34;;;;;;;;;;;;;;;24.68;44.77;102121.66;5058847;28;21628;-70
2023/09/02 08:45:03;;;;;;;;;;;;;;;24.71;44.85;102119.44;5059769;28;19942;-71
2023/09/02 08:47:30;;;;;;;;;;;;;;;24.73;44.93;102123.75;5058952;28;19965;-71
2023/09/02 08:49:56;;;;;;;;;;;;;;;24.73;44.96;102127.25;5057555;28;20006;-70
2023/09/02 08:52:21;;;;;;;;;;;;;;;24.74;44.85;102128.06;5058022;28;19945;-70
2023/09/02 08:54:48;;;;;;;;;;;;;;;24.74;44.91;102128.06;5057742;28;20571;-70
2023/09/02 08:57:16;;;;;;;;;;;;;;;24.75;44.85;102135.06;5061095;28;19999;-70
2023/09/02 08:59:41;;;;;;;;;;;;;;;24.75;44.93;102135.88;5060514;28;19973;-70
2023/09/02 09:02:10;;;;;;;;;;;;;;;24.76;44.69;102142.03;5055428;28;20361;-71
2023/09/02 09:04:36;;;;;;;;;;;;;;;24.76;45.01;102137.53;5058397;28;20071;-70
2023/09/02 09:07:03;;;;;;;;;;;;;;;24.76;44.84;102139.38;5063463;28;20090;-70
2023/09/02 09:09:28;;;;;;;;;;;;;;;24.79;44.88;102142.53;5059532;28;19950;-70
2023/09/02 09:11:55;;;;;;;;;;;;;;;24.73;44.89;102156.56;5060454;28;19942;-70
2023/09/02 09:14:22;;;;;;;;;;;;;;;24.74;45.01;102168.03;5061851;28;19955;-71
2023/09/02 09:16:48;;;;;;;;;;;;;;;24.74;45.00;102170.69;5062921;28;20562;-72
2023/09/02 09:19:14;;;;;;;;;;;;;;;24.79;44.80;102171.84;5061831;28;19961;-70
2023/09/02 09:21:39;;;;;;;;;;;;;;;24.80;45.11;102176.16;5058032;28;21541;-70
2023/09/02 09:24:04;;;;;;;;;;;;;;;24.64;44.63;102153.16;5060220;28;20022;-72
2023/09/02 09:26:30;;;;;;;;;;;;;;;24.79;44.76;102179.81;5067713;28;19950;-72
2023/09/02 09:28:58;;;;;;;;;;;;;;;24.80;44.83;102178.00;5062643;28;19949;-71
2023/09/02 09:31:24;;;;;;;;;;;;;;;24.81;44.77;102180.47;5056975;28;20076;-71
2023/09/02 09:33:50;;;;;;;;;;;;;;;24.81;44.89;102184.97;5058829;28;19952;-71
2023/09/02 09:36:17;;;;;;;;;;;;;;;24.84;44.87;102189.94;5070845;28;19942;-71
2023/09/02 09:38:42;;;;;;;;;;;;;;;24.82;44.90;102194.63;5055723;28;19964;-71
2023/09/02 09:41:09;;;;;;;;;;;;;;;24.83;44.92;102188.28;5061779;28;20370;-71
2023/09/02 09:43:35;;;;;;;;;;;;;;;24.82;44.96;102198.09;5058096;28;19952;-71
2023/09/02 09:46:00;;;;;;;;;;;;;;;24.84;44.75;102192.59;5056363;28;20054;-71
2023/09/02 09:48:26;;;;;;;;;;;;;;;24.83;44.79;102190.94;5057486;28;20154;-71
2023/09/02 09:50:51;;;;;;;;;;;;;;;24.81;44.79;102191.13;5054711;28;20434;-71
2023/09/02 09:53:17;;;;;;;;;;;;;;;24.82;44.95;102189.28;5059459;28;20096;-71
2023/09/02 09:55:42;;;;;;;;;;;;;;;24.83;44.87;102186.44;5061323;28;19980;-72
2023/09/02 09:58:08;;;;;;;;;;;;;;;24.63;45.02;102163.97;5058164;28;19949;-71
2023/09/02 10:00:33;;;;;;;;;;;;;;;24.82;44.90;102203.44;5061226;28;19945;-72
2023/09/02 10:02:59;;;;;;;;;;;;;;;24.85;44.89;102194.25;5057447;28;20000;-72
2023/09/02 10:05:32;;;;;;;;;;;;;;;24.85;44.72;102199.59;5071735;28;19952;-72
2023/09/02 10:08:02;;;;;;;;;;;;;;;24.82;44.97;102210.59;5054946;28;19951;-72
2023/09/02 10:10:29;;;;;;;;;;;;;;;24.83;44.78;102213.09;5058070;28;19949;-71
2023/09/02 10:12:55;;;;;;;;;;;;;;;24.83;44.80;102209.59;5055404;28;19947;-71
2023/09/02 10:15:25;;;;;;;;;;;;;;;24.84;44.72;102214.75;5055946;28;19945;-71
2023/09/02 10:17:55;;;;;;;;;;;;;;;24.84;44.82;102214.75;5053683;28;20030;-72
2023/09/02 10:20:23;;;;;;;;;;;;;;;24.83;44.80;102222.91;5056737;28;19994;-71
2023/09/02 10:22:49;;;;;;;;;;;;;;;24.85;44.83;102224.38;5060321;28;20034;-71
2023/09/02 10:25:19;;;;;;;;;;;;;;;24.67;44.61;102183.91;5056062;28;19968;-71
2023/09/02 10:27:47;;;;;;;;;;;;;;;24.85;44.70;102216.41;5059994;28;20181;-71
2023/09/02 10:30:42;;;;;;;;;;;;;;;24.86;44.80;102215.38;5060835;28;19941;-71
2023/09/02 10:33:23;;;;;;;;;;;;;;;24.85;44.80;102211.06;5059160;28;19942;-71
2023/09/02 10:35:57;;;;;;;;;;;;;;;24.88;44.71;102215.19;5060537;28;19940;-71
2023/09/02 10:38:24;;;;;;;;;;;;;;;24.88;44.80;102220.53;5059857;28;19987;-71
2023/09/02 10:40:56;;;;;;;;;;;;;;;24.87;44.62;102221.53;5060597;28;19939;-71
2023/09/02 10:43:23;;;;;;;;;;;;;;;24.88;44.72;102224.03;5064902;28;19945;-71
2023/09/02 10:45:48;;;;;;;;;;;;;;;24.89;44.60;102219.53;5062343;28;20362;-71
2023/09/02 10:48:14;;;;;;;;;;;;;;;24.90;44.76;102218.50;5061985;28;19966;-71
2023/09/02 10:50:40;;;;;;;;;;;;;;;24.91;44.41;102222.84;5062475;28;20037;-71
2023/09/02 10:53:05;;;;;;;;;;;;;;;24.89;44.76;102228.34;5058162;28;20418;-71
2023/09/02 10:55:31;;;;;;;;;;;;;;;24.90;44.59;102234.50;5059933;28;19946;-71
2023/09/02 10:57:59;;;;;;;;;;;;;;;24.90;44.68;102232.66;5057071;28;20037;-70
2023/09/02 11:00:25;;;;;;;;;;;;;;;24.79;44.60;102210.97;5056035;28;20014;-72
2023/09/02 11:02:53;;;;;;;;;;;;;;;24.91;44.69;102226.31;5057820;28;19963;-68
2023/09/02 11:05:19;;;;;;;;;;;;;;;24.89;44.63;102239.00;5051807;28;20073;-69
2023/09/02 11:07:45;;;;;;;;;;;;;;;24.88;44.82;102245.34;5060176;28;20043;-69
2023/09/02 11:10:10;;;;;;;;;;;;;;;24.88;44.83;102248.00;5054173;28;19990;-67
2023/09/02 11:12:55;;;;;;;;;;;;;;;24.86;45.05;102247.34;5058148;28;21553;-68
2023/09/02 11:15:20;;;;;;;;;;;;;;;24.88;44.69;102244.50;5060264;28;19939;-69
2023/09/02 11:17:46;;;;;;;;;;;;;;;24.89;44.95;102235.50;5056103;28;19994;-71
2023/09/02 11:20:12;;;;;;;;;;;;;;;24.90;44.96;102231.84;5059562;28;19961;-69
2023/09/02 11:22:51;;;;;;;;;;;;;;;24.90;44.91;102227.34;5054881;28;19949;-70
2023/09/02 11:25:25;;;;;;;;;;;;;;;24.89;44.79;102230.19;5053248;28;20009;-70
2023/09/02 11:27:51;;;;;;;;;;;;;;;24.88;44.92;102228.53;5059392;28;20016;-70
2023/09/02 11:30:16;;;;;;;;;;;;;;;24.92;45.02;102227.16;5052010;28;20048;-71
2023/09/02 11:32:43;;;;;;;;;;;;;;;24.89;44.93;102227.50;5055363;28;20006;-68
2023/09/02 11:35:09;;;;;;;;;;;;;;;24.91;45.10;102231.66;5057816;28;19976;-71
2023/09/02 11:37:34;;;;;;;;;;;;;;;24.71;44.80;102207.34;5058082;28;20050;-71
2023/09/02 11:40:32;;;;;;;;;;;;;;;24.91;44.74;102233.50;5063787;28;19961;-71
2023/09/02 11:43:00;;;;;;;;;;;;;;;24.92;44.91;102240.47;5030246;28;19943;-70
2023/09/02 11:45:27;;;;;;;;;;;;;;;24.92;44.73;102238.63;5059226;28;20417;-71
2023/09/02 11:47:53;;;;;;;;;;;;;;;24.93;44.91;102252.78;5061000;28;20520;-72
2023/09/02 11:50:20;;;;;;;;;;;;;;;24.94;44.82;102251.78;5058649;28;19990;-71
2023/09/02 11:52:46;;;;;;;;;;;;;;;24.93;44.79;102258.94;5060723;28;19943;-71
2023/09/02 11:55:12;;;;;;;;;;;;;;;24.93;44.68;102252.78;5059177;28;19948;-71
2023/09/02 11:57:38;;;;;;;;;;;;;;;24.92;44.74;102251.97;5061416;28;19939;-69
2023/09/02 12:00:04;;;;;;;;;;;;;;;24.94;44.81;102255.28;5056718;28;20481;-72
2023/09/02 12:02:30;;;;;;;;;;;;;;;24.94;44.72;102257.09;5056611;28;19939;-71
2023/09/02 12:04:55;;;;;;;;;;;;;;;24.93;44.82;102244.78;5055422;28;19984;-72
2023/09/02 12:07:21;;;;;;;;;;;;;;;24.93;44.90;102256.28;5062387;28;19939;-71
2023/09/02 12:09:46;;;;;;;;;;;;;;;24.96;44.52;102257.78;5061012;28;19945;-71
2023/09/02 12:12:12;;;;;;;;;;;;;;;24.96;44.66;102257.78;5058132;28;19948;-70
2023/09/02 12:14:37;;;;;;;;;;;;;;;24.95;44.70;102248.09;5057465;28;19995;-70
2023/09/02 12:17:04;;;;;;;;;;;;;;;24.92;44.91;102251.97;5058052;28;19985;-69
2023/09/02 12:19:29;;;;;;;;;;;;;;;24.96;44.79;102249.78;5055046;28;19965;-72
2023/09/02 12:21:55;;;;;;;;;;;;;;;24.95;44.79;102245.44;5062952;28;19984;-70
2023/09/02 12:24:21;;;;;;;;;;;;;;;24.97;44.84;102257.59;5061848;28;19995;-71
2023/09/02 12:26:50;;;;;;;;;;;;;;;24.97;44.83;102251.44;5055163;28;20625;-71
2023/09/02 12:29:16;;;;;;;;;;;;;;;24.98;44.73;102255.75;5059024;28;19972;-71
2023/09/02 12:31:44;;;;;;;;;;;;;;;24.99;44.67;102246.75;5058851;28;19997;-71
2023/09/02 12:34:10;;;;;;;;;;;;;;;24.98;44.55;102237.13;5062967;28;20013;-71